sensor_id;sensor_type;location;lat;lon;timestamp;P1;durP1;ratioP1;P2;durP2;ratioP2
12363;SDS011;6246;50.826;4.712;2024-03-08T00:02:17;18.37;;;14.93;;
12363;SDS011;6246;50.826;4.712;2024-03-08T00:04:44;17.57;;;14.47;;
12363;SDS011;6246;50.826;4.712;2024-03-08T00:07:11;16.97;;;14.40;;
12363;SDS011;6246;50.826;4.712;2024-03-08T00:09:38;16.90;;;14.57;;
12363;SDS011;6246;50.826;4.712;2024-03-08T00:12:04;15.57;;;13.13;;
12363;SDS011;6246;50.826;4.712;2024-03-08T00:14:31;16.30;;;13.33;;
12363;SDS011;6246;50.826;4.712;2024-03-08T00:16:58;16.10;;;13.40;;
12363;SDS011;6246;50.826;4.712;2024-03-08T00:19:24;14.53;;;12.63;;
12363;SDS011;6246;50.826;4.712;2024-03-08T00:21:50;15.43;;;12.37;;
12363;SDS011;6246;50.826;4.712;2024-03-08T00:24:16;13.53;;;11.90;;
12363;SDS011;6246;50.826;4.712;2024-03-08T00:26:42;14.77;;;12.27;;
12363;SDS011;6246;50.826;4.712;2024-03-08T00:29:08;16.67;;;12.37;;
12363;SDS011;6246;50.826;4.712;2024-03-08T00:31:34;14.20;;;11.40;;
12363;SDS011;6246;50.826;4.712;2024-03-08T00:34:00;14.60;;;11.70;;
12363;SDS011;6246;50.826;4.712;2024-03-08T00:36:26;14.10;;;11.70;;
12363;SDS011;6246;50.826;4.712;2024-03-08T00:38:55;13.53;;;11.10;;
12363;SDS011;6246;50.826;4.712;2024-03-08T00:41:21;13.80;;;10.73;;
12363;SDS011;6246;50.826;4.712;2024-03-08T00:43:47;13.33;;;11.00;;
12363;SDS011;6246;50.826;4.712;2024-03-08T00:46:13;13.40;;;10.63;;
12363;SDS011;6246;50.826;4.712;2024-03-08T00:48:40;12.23;;;10.57;;
12363;SDS011;6246;50.826;4.712;2024-03-08T00:51:08;13.47;;;10.23;;
12363;SDS011;6246;50.826;4.712;2024-03-08T00:53:34;12.83;;;10.03;;
12363;SDS011;6246;50.826;4.712;2024-03-08T00:56:00;12.47;;;10.00;;
12363;SDS011;6246;50.826;4.712;2024-03-08T00:58:26;12.17;;;10.30;;
12363;SDS011;6246;50.826;4.712;2024-03-08T01:00:53;11.07;;;9.57;;
12363;SDS011;6246;50.826;4.712;2024-03-08T01:03:19;13.23;;;10.37;;
12363;SDS011;6246;50.826;4.712;2024-03-08T01:05:45;12.47;;;10.57;;
12363;SDS011;6246;50.826;4.712;2024-03-08T01:08:11;11.77;;;9.53;;
12363;SDS011;6246;50.826;4.712;2024-03-08T01:10:37;11.20;;;9.37;;
12363;SDS011;6246;50.826;4.712;2024-03-08T01:13:03;11.23;;;9.83;;
12363;SDS011;6246;50.826;4.712;2024-03-08T01:15:30;11.70;;;9.10;;
12363;SDS011;6246;50.826;4.712;2024-03-08T01:17:56;11.97;;;9.37;;
12363;SDS011;6246;50.826;4.712;2024-03-08T01:20:22;11.20;;;9.50;;
12363;SDS011;6246;50.826;4.712;2024-03-08T01:22:48;10.63;;;8.70;;
12363;SDS011;6246;50.826;4.712;2024-03-08T01:25:14;11.20;;;8.90;;
12363;SDS011;6246;50.826;4.712;2024-03-08T01:27:40;11.60;;;9.10;;
12363;SDS011;6246;50.826;4.712;2024-03-08T01:30:06;10.47;;;8.40;;
12363;SDS011;6246;50.826;4.712;2024-03-08T01:32:34;11.23;;;8.50;;
12363;SDS011;6246;50.826;4.712;2024-03-08T01:35:00;11.33;;;9.37;;
12363;SDS011;6246;50.826;4.712;2024-03-08T01:37:28;10.40;;;8.03;;
12363;SDS011;6246;50.826;4.712;2024-03-08T01:39:54;10.80;;;8.43;;
12363;SDS011;6246;50.826;4.712;2024-03-08T01:42:20;9.87;;;8.03;;
12363;SDS011;6246;50.826;4.712;2024-03-08T01:44:47;9.90;;;8.43;;
12363;SDS011;6246;50.826;4.712;2024-03-08T01:47:13;9.73;;;8.30;;
12363;SDS011;6246;50.826;4.712;2024-03-08T01:49:39;9.57;;;8.10;;
12363;SDS011;6246;50.826;4.712;2024-03-08T01:52:05;10.17;;;8.30;;
12363;SDS011;6246;50.826;4.712;2024-03-08T01:54:31;10.37;;;7.80;;
12363;SDS011;6246;50.826;4.712;2024-03-08T01:56:57;10.23;;;8.33;;
12363;SDS011;6246;50.826;4.712;2024-03-08T01:59:24;8.93;;;7.37;;
12363;SDS011;6246;50.826;4.712;2024-03-08T02:01:51;10.33;;;8.20;;
12363;SDS011;6246;50.826;4.712;2024-03-08T02:04:18;8.50;;;7.23;;
12363;SDS011;6246;50.826;4.712;2024-03-08T02:06:44;8.23;;;7.20;;
12363;SDS011;6246;50.826;4.712;2024-03-08T02:09:10;9.17;;;7.50;;
12363;SDS011;6246;50.826;4.712;2024-03-08T02:11:36;10.10;;;7.77;;
12363;SDS011;6246;50.826;4.712;2024-03-08T02:14:02;10.50;;;7.83;;
12363;SDS011;6246;50.826;4.712;2024-03-08T02:16:31;9.27;;;7.60;;
12363;SDS011;6246;50.826;4.712;2024-03-08T02:18:58;9.20;;;7.90;;
12363;SDS011;6246;50.826;4.712;2024-03-08T02:21:24;9.50;;;7.67;;
12363;SDS011;6246;50.826;4.712;2024-03-08T02:23:50;9.57;;;6.97;;
12363;SDS011;6246;50.826;4.712;2024-03-08T02:26:19;9.27;;;7.50;;
12363;SDS011;6246;50.826;4.712;2024-03-08T02:28:46;9.47;;;7.43;;
12363;SDS011;6246;50.826;4.712;2024-03-08T02:31:12;9.60;;;7.23;;
12363;SDS011;6246;50.826;4.712;2024-03-08T02:33:38;8.90;;;7.40;;
12363;SDS011;6246;50.826;4.712;2024-03-08T02:36:04;8.23;;;6.97;;
12363;SDS011;6246;50.826;4.712;2024-03-08T02:38:31;8.20;;;7.33;;
12363;SDS011;6246;50.826;4.712;2024-03-08T02:40:58;9.00;;;7.40;;
12363;SDS011;6246;50.826;4.712;2024-03-08T02:43:24;8.57;;;7.17;;
12363;SDS011;6246;50.826;4.712;2024-03-08T02:45:50;9.13;;;7.00;;
12363;SDS011;6246;50.826;4.712;2024-03-08T02:48:18;9.77;;;7.67;;
12363;SDS011;6246;50.826;4.712;2024-03-08T02:50:44;8.17;;;7.00;;
12363;SDS011;6246;50.826;4.712;2024-03-08T02:53:11;8.30;;;7.17;;
12363;SDS011;6246;50.826;4.712;2024-03-08T02:55:37;8.17;;;6.83;;
12363;SDS011;6246;50.826;4.712;2024-03-08T02:58:04;8.20;;;7.17;;
12363;SDS011;6246;50.826;4.712;2024-03-08T03:00:33;7.40;;;6.57;;
12363;SDS011;6246;50.826;4.712;2024-03-08T03:02:59;9.17;;;7.20;;
12363;SDS011;6246;50.826;4.712;2024-03-08T03:05:28;8.00;;;6.77;;
12363;SDS011;6246;50.826;4.712;2024-03-08T03:07:54;8.43;;;6.80;;
12363;SDS011;6246;50.826;4.712;2024-03-08T03:10:20;10.27;;;6.97;;
12363;SDS011;6246;50.826;4.712;2024-03-08T03:12:48;7.33;;;6.57;;
12363;SDS011;6246;50.826;4.712;2024-03-08T03:15:14;7.90;;;6.90;;
12363;SDS011;6246;50.826;4.712;2024-03-08T03:17:47;7.30;;;6.40;;
12363;SDS011;6246;50.826;4.712;2024-03-08T03:20:13;7.77;;;6.57;;
12363;SDS011;6246;50.826;4.712;2024-03-08T03:22:40;7.57;;;6.60;;
12363;SDS011;6246;50.826;4.712;2024-03-08T03:25:09;8.63;;;7.23;;
12363;SDS011;6246;50.826;4.712;2024-03-08T03:27:35;7.10;;;6.33;;
12363;SDS011;6246;50.826;4.712;2024-03-08T03:30:02;7.63;;;6.60;;
12363;SDS011;6246;50.826;4.712;2024-03-08T03:32:46;7.20;;;6.43;;
12363;SDS011;6246;50.826;4.712;2024-03-08T03:35:12;8.07;;;6.90;;
12363;SDS011;6246;50.826;4.712;2024-03-08T03:37:39;6.77;;;5.90;;
12363;SDS011;6246;50.826;4.712;2024-03-08T03:40:07;8.37;;;6.63;;
12363;SDS011;6246;50.826;4.712;2024-03-08T03:42:34;8.63;;;6.53;;
12363;SDS011;6246;50.826;4.712;2024-03-08T03:45:00;7.53;;;6.27;;
12363;SDS011;6246;50.826;4.712;2024-03-08T03:47:28;8.17;;;6.90;;
12363;SDS011;6246;50.826;4.712;2024-03-08T03:49:54;7.57;;;6.77;;
12363;SDS011;6246;50.826;4.712;2024-03-08T03:52:21;6.80;;;6.10;;
12363;SDS011;6246;50.826;4.712;2024-03-08T03:54:47;7.00;;;6.30;;
12363;SDS011;6246;50.826;4.712;2024-03-08T03:57:13;6.50;;;5.90;;
12363;SDS011;6246;50.826;4.712;2024-03-08T03:59:40;6.93;;;6.23;;
12363;SDS011;6246;50.826;4.712;2024-03-08T04:02:06;7.37;;;6.40;;
12363;SDS011;6246;50.826;4.712;2024-03-08T04:04:32;7.50;;;6.30;;
12363;SDS011;6246;50.826;4.712;2024-03-08T04:06:58;6.67;;;5.97;;
12363;SDS011;6246;50.826;4.712;2024-03-08T04:09:24;7.57;;;6.43;;
12363;SDS011;6246;50.826;4.712;2024-03-08T04:11:50;8.30;;;6.83;;
12363;SDS011;6246;50.826;4.712;2024-03-08T04:14:18;6.80;;;6.10;;
12363;SDS011;6246;50.826;4.712;2024-03-08T04:16:44;7.53;;;6.57;;
12363;SDS011;6246;50.826;4.712;2024-03-08T04:19:10;7.13;;;6.30;;
12363;SDS011;6246;50.826;4.712;2024-03-08T04:21:36;7.80;;;6.57;;
12363;SDS011;6246;50.826;4.712;2024-03-08T04:24:02;7.67;;;6.67;;
12363;SDS011;6246;50.826;4.712;2024-03-08T04:26:29;8.73;;;6.50;;
12363;SDS011;6246;50.826;4.712;2024-03-08T04:28:55;7.70;;;6.13;;
12363;SDS011;6246;50.826;4.712;2024-03-08T04:31:21;6.70;;;6.00;;
12363;SDS011;6246;50.826;4.712;2024-03-08T04:33:47;8.03;;;6.53;;
12363;SDS011;6246;50.826;4.712;2024-03-08T04:36:13;7.63;;;6.47;;
12363;SDS011;6246;50.826;4.712;2024-03-08T04:38:39;7.83;;;6.63;;
12363;SDS011;6246;50.826;4.712;2024-03-08T04:41:06;6.83;;;6.10;;
12363;SDS011;6246;50.826;4.712;2024-03-08T04:43:32;7.07;;;6.03;;
12363;SDS011;6246;50.826;4.712;2024-03-08T04:45:58;6.93;;;6.23;;
12363;SDS011;6246;50.826;4.712;2024-03-08T04:48:24;7.63;;;6.30;;
12363;SDS011;6246;50.826;4.712;2024-03-08T04:50:52;6.57;;;5.90;;
12363;SDS011;6246;50.826;4.712;2024-03-08T04:53:19;7.43;;;6.60;;
12363;SDS011;6246;50.826;4.712;2024-03-08T04:55:45;7.33;;;6.57;;
12363;SDS011;6246;50.826;4.712;2024-03-08T04:58:11;7.30;;;6.20;;
12363;SDS011;6246;50.826;4.712;2024-03-08T05:00:37;7.37;;;6.57;;
12363;SDS011;6246;50.826;4.712;2024-03-08T05:03:03;9.47;;;6.57;;
12363;SDS011;6246;50.826;4.712;2024-03-08T05:05:29;6.97;;;6.23;;
12363;SDS011;6246;50.826;4.712;2024-03-08T05:07:56;6.30;;;5.70;;
12363;SDS011;6246;50.826;4.712;2024-03-08T05:10:22;7.43;;;6.07;;
12363;SDS011;6246;50.826;4.712;2024-03-08T05:12:48;7.70;;;6.13;;
12363;SDS011;6246;50.826;4.712;2024-03-08T05:15:14;8.37;;;6.63;;
12363;SDS011;6246;50.826;4.712;2024-03-08T05:17:40;7.07;;;6.33;;
12363;SDS011;6246;50.826;4.712;2024-03-08T05:20:07;6.73;;;6.03;;
12363;SDS011;6246;50.826;4.712;2024-03-08T05:22:37;7.30;;;6.50;;
12363;SDS011;6246;50.826;4.712;2024-03-08T05:25:03;7.30;;;6.20;;
12363;SDS011;6246;50.826;4.712;2024-03-08T05:27:29;8.57;;;6.60;;
12363;SDS011;6246;50.826;4.712;2024-03-08T05:29:55;7.93;;;6.33;;
12363;SDS011;6246;50.826;4.712;2024-03-08T05:32:21;7.20;;;5.77;;
12363;SDS011;6246;50.826;4.712;2024-03-08T05:34:47;7.37;;;6.50;;
12363;SDS011;6246;50.826;4.712;2024-03-08T05:37:13;7.40;;;6.53;;
12363;SDS011;6246;50.826;4.712;2024-03-08T05:39:39;7.40;;;6.50;;
12363;SDS011;6246;50.826;4.712;2024-03-08T05:42:06;10.70;;;6.40;;
12363;SDS011;6246;50.826;4.712;2024-03-08T05:44:33;6.90;;;6.17;;
12363;SDS011;6246;50.826;4.712;2024-03-08T05:46:59;8.17;;;6.90;;
12363;SDS011;6246;50.826;4.712;2024-03-08T05:49:25;8.37;;;6.37;;
12363;SDS011;6246;50.826;4.712;2024-03-08T05:51:51;8.17;;;6.30;;
12363;SDS011;6246;50.826;4.712;2024-03-08T05:54:19;7.60;;;6.13;;
12363;SDS011;6246;50.826;4.712;2024-03-08T05:56:49;6.80;;;6.10;;
12363;SDS011;6246;50.826;4.712;2024-03-08T05:59:17;7.60;;;6.23;;
12363;SDS011;6246;50.826;4.712;2024-03-08T06:01:43;7.77;;;6.27;;
12363;SDS011;6246;50.826;4.712;2024-03-08T06:04:11;7.63;;;6.50;;
12363;SDS011;6246;50.826;4.712;2024-03-08T06:06:37;7.17;;;6.30;;
12363;SDS011;6246;50.826;4.712;2024-03-08T06:09:03;7.17;;;6.40;;
12363;SDS011;6246;50.826;4.712;2024-03-08T06:11:36;7.43;;;6.67;;
12363;SDS011;6246;50.826;4.712;2024-03-08T06:14:03;7.73;;;6.50;;
12363;SDS011;6246;50.826;4.712;2024-03-08T06:16:29;7.27;;;6.57;;
12363;SDS011;6246;50.826;4.712;2024-03-08T06:18:55;7.20;;;6.47;;
12363;SDS011;6246;50.826;4.712;2024-03-08T06:21:22;9.23;;;7.33;;
12363;SDS011;6246;50.826;4.712;2024-03-08T06:23:49;8.53;;;6.70;;
12363;SDS011;6246;50.826;4.712;2024-03-08T06:26:16;8.90;;;7.17;;
12363;SDS011;6246;50.826;4.712;2024-03-08T06:28:42;6.77;;;5.80;;
12363;SDS011;6246;50.826;4.712;2024-03-08T06:31:08;9.13;;;6.50;;
12363;SDS011;6246;50.826;4.712;2024-03-08T06:33:35;8.93;;;6.73;;
12363;SDS011;6246;50.826;4.712;2024-03-08T06:36:01;9.20;;;6.93;;
12363;SDS011;6246;50.826;4.712;2024-03-08T06:38:27;9.67;;;6.80;;
12363;SDS011;6246;50.826;4.712;2024-03-08T06:40:55;9.00;;;6.77;;
12363;SDS011;6246;50.826;4.712;2024-03-08T06:43:21;9.33;;;7.40;;
12363;SDS011;6246;50.826;4.712;2024-03-08T06:45:50;7.73;;;6.10;;
12363;SDS011;6246;50.826;4.712;2024-03-08T06:48:17;8.47;;;6.33;;
12363;SDS011;6246;50.826;4.712;2024-03-08T06:50:44;10.17;;;6.87;;
12363;SDS011;6246;50.826;4.712;2024-03-08T06:53:10;10.53;;;6.87;;
12363;SDS011;6246;50.826;4.712;2024-03-08T06:55:37;11.20;;;8.87;;
12363;SDS011;6246;50.826;4.712;2024-03-08T06:58:03;12.93;;;8.47;;
12363;SDS011;6246;50.826;4.712;2024-03-08T07:00:29;16.20;;;10.90;;
12363;SDS011;6246;50.826;4.712;2024-03-08T07:02:58;13.73;;;10.63;;
12363;SDS011;6246;50.826;4.712;2024-03-08T07:05:28;13.73;;;10.50;;
12363;SDS011;6246;50.826;4.712;2024-03-08T07:07:54;17.10;;;11.40;;
12363;SDS011;6246;50.826;4.712;2024-03-08T07:10:20;13.63;;;11.40;;
12363;SDS011;6246;50.826;4.712;2024-03-08T07:12:49;13.70;;;11.23;;
12363;SDS011;6246;50.826;4.712;2024-03-08T07:15:15;13.03;;;10.93;;
12363;SDS011;6246;50.826;4.712;2024-03-08T07:17:44;12.30;;;10.30;;
12363;SDS011;6246;50.826;4.712;2024-03-08T07:20:10;13.00;;;10.17;;
12363;SDS011;6246;50.826;4.712;2024-03-08T07:22:38;12.03;;;10.00;;
12363;SDS011;6246;50.826;4.712;2024-03-08T07:25:04;14.43;;;10.87;;
12363;SDS011;6246;50.826;4.712;2024-03-08T07:27:49;12.70;;;10.10;;
12363;SDS011;6246;50.826;4.712;2024-03-08T07:30:16;12.60;;;10.43;;
12363;SDS011;6246;50.826;4.712;2024-03-08T07:33:01;11.97;;;10.57;;
12363;SDS011;6246;50.826;4.712;2024-03-08T07:35:28;13.20;;;11.50;;
12363;SDS011;6246;50.826;4.712;2024-03-08T07:37:54;13.30;;;11.07;;
12363;SDS011;6246;50.826;4.712;2024-03-08T07:40:23;14.03;;;11.67;;
12363;SDS011;6246;50.826;4.712;2024-03-08T07:42:49;14.70;;;11.53;;
12363;SDS011;6246;50.826;4.712;2024-03-08T07:45:15;13.80;;;11.33;;
12363;SDS011;6246;50.826;4.712;2024-03-08T07:47:42;12.00;;;10.10;;
12363;SDS011;6246;50.826;4.712;2024-03-08T07:50:08;15.83;;;11.20;;
12363;SDS011;6246;50.826;4.712;2024-03-08T07:52:34;11.97;;;10.10;;
12363;SDS011;6246;50.826;4.712;2024-03-08T07:55:01;12.27;;;8.50;;
12363;SDS011;6246;50.826;4.712;2024-03-08T07:57:28;10.77;;;8.63;;
12363;SDS011;6246;50.826;4.712;2024-03-08T07:59:54;10.37;;;8.93;;
12363;SDS011;6246;50.826;4.712;2024-03-08T08:02:20;16.20;;;9.20;;
12363;SDS011;6246;50.826;4.712;2024-03-08T08:04:47;9.63;;;8.33;;
12363;SDS011;6246;50.826;4.712;2024-03-08T08:07:13;9.83;;;8.60;;
12363;SDS011;6246;50.826;4.712;2024-03-08T08:09:39;9.40;;;8.40;;
12363;SDS011;6246;50.826;4.712;2024-03-08T08:12:07;10.03;;;8.13;;
12363;SDS011;6246;50.826;4.712;2024-03-08T08:14:37;11.20;;;8.10;;
12363;SDS011;6246;50.826;4.712;2024-03-08T08:17:03;10.73;;;8.50;;
12363;SDS011;6246;50.826;4.712;2024-03-08T08:19:29;9.97;;;8.00;;
12363;SDS011;6246;50.826;4.712;2024-03-08T08:21:56;10.17;;;8.10;;
12363;SDS011;6246;50.826;4.712;2024-03-08T08:24:23;10.17;;;8.10;;
12363;SDS011;6246;50.826;4.712;2024-03-08T08:26:49;9.00;;;8.03;;
12363;SDS011;6246;50.826;4.712;2024-03-08T08:29:15;9.00;;;8.10;;
12363;SDS011;6246;50.826;4.712;2024-03-08T08:31:41;10.60;;;7.57;;
12363;SDS011;6246;50.826;4.712;2024-03-08T08:34:09;8.63;;;7.27;;
12363;SDS011;6246;50.826;4.712;2024-03-08T08:36:36;10.17;;;7.60;;
12363;SDS011;6246;50.826;4.712;2024-03-08T08:39:04;9.57;;;7.37;;
12363;SDS011;6246;50.826;4.712;2024-03-08T08:41:30;8.07;;;7.27;;
12363;SDS011;6246;50.826;4.712;2024-03-08T08:43:56;8.53;;;7.30;;
12363;SDS011;6246;50.826;4.712;2024-03-08T08:46:23;9.27;;;7.60;;
12363;SDS011;6246;50.826;4.712;2024-03-08T08:48:49;9.03;;;6.67;;
12363;SDS011;6246;50.826;4.712;2024-03-08T08:51:15;10.40;;;7.37;;
12363;SDS011;6246;50.826;4.712;2024-03-08T08:53:42;10.80;;;7.20;;
12363;SDS011;6246;50.826;4.712;2024-03-08T08:56:10;9.20;;;7.17;;
12363;SDS011;6246;50.826;4.712;2024-03-08T08:58:38;12.57;;;7.70;;
12363;SDS011;6246;50.826;4.712;2024-03-08T09:01:05;15.77;;;11.13;;
12363;SDS011;6246;50.826;4.712;2024-03-08T09:03:32;16.83;;;13.10;;
12363;SDS011;6246;50.826;4.712;2024-03-08T09:06:00;15.77;;;9.67;;
12363;SDS011;6246;50.826;4.712;2024-03-08T09:08:27;12.20;;;8.73;;
12363;SDS011;6246;50.826;4.712;2024-03-08T09:10:53;10.93;;;7.87;;
12363;SDS011;6246;50.826;4.712;2024-03-08T09:13:20;16.20;;;7.80;;
12363;SDS011;6246;50.826;4.712;2024-03-08T09:15:46;10.67;;;7.63;;
12363;SDS011;6246;50.826;4.712;2024-03-08T09:18:12;14.60;;;8.47;;
12363;SDS011;6246;50.826;4.712;2024-03-08T09:20:38;21.90;;;8.73;;
12363;SDS011;6246;50.826;4.712;2024-03-08T09:23:06;14.73;;;8.90;;
12363;SDS011;6246;50.826;4.712;2024-03-08T09:25:33;14.27;;;8.10;;
12363;SDS011;6246;50.826;4.712;2024-03-08T09:27:59;17.63;;;8.93;;
12363;SDS011;6246;50.826;4.712;2024-03-08T09:30:25;19.33;;;9.40;;
12363;SDS011;6246;50.826;4.712;2024-03-08T09:32:51;15.13;;;9.13;;
12363;SDS011;6246;50.826;4.712;2024-03-08T09:35:17;18.10;;;9.57;;
12363;SDS011;6246;50.826;4.712;2024-03-08T09:37:43;15.60;;;8.30;;
12363;SDS011;6246;50.826;4.712;2024-03-08T09:40:12;14.20;;;8.93;;
12363;SDS011;6246;50.826;4.712;2024-03-08T09:42:40;15.43;;;8.23;;
12363;SDS011;6246;50.826;4.712;2024-03-08T09:45:10;13.00;;;8.70;;
12363;SDS011;6246;50.826;4.712;2024-03-08T09:47:36;13.40;;;8.53;;
12363;SDS011;6246;50.826;4.712;2024-03-08T09:50:04;14.00;;;8.27;;
12363;SDS011;6246;50.826;4.712;2024-03-08T09:52:30;12.33;;;8.17;;
12363;SDS011;6246;50.826;4.712;2024-03-08T09:54:57;12.37;;;8.40;;
12363;SDS011;6246;50.826;4.712;2024-03-08T09:57:25;11.23;;;8.07;;
12363;SDS011;6246;50.826;4.712;2024-03-08T09:59:51;12.77;;;8.67;;
12363;SDS011;6246;50.826;4.712;2024-03-08T10:02:18;10.70;;;8.03;;
12363;SDS011;6246;50.826;4.712;2024-03-08T10:04:44;13.00;;;8.47;;
12363;SDS011;6246;50.826;4.712;2024-03-08T10:07:11;9.23;;;7.57;;
12363;SDS011;6246;50.826;4.712;2024-03-08T10:09:37;10.30;;;8.03;;
12363;SDS011;6246;50.826;4.712;2024-03-08T10:12:04;11.67;;;8.47;;
12363;SDS011;6246;50.826;4.712;2024-03-08T10:14:30;10.37;;;7.90;;
12363;SDS011;6246;50.826;4.712;2024-03-08T10:16:57;12.43;;;8.03;;
12363;SDS011;6246;50.826;4.712;2024-03-08T10:19:26;10.83;;;8.00;;
12363;SDS011;6246;50.826;4.712;2024-03-08T10:21:54;11.07;;;7.90;;
12363;SDS011;6246;50.826;4.712;2024-03-08T10:24:24;11.67;;;8.30;;
12363;SDS011;6246;50.826;4.712;2024-03-08T10:26:53;10.67;;;7.93;;
12363;SDS011;6246;50.826;4.712;2024-03-08T10:29:19;9.57;;;7.33;;
12363;SDS011;6246;50.826;4.712;2024-03-08T10:31:45;11.43;;;7.40;;
12363;SDS011;6246;50.826;4.712;2024-03-08T10:34:11;11.80;;;7.80;;
12363;SDS011;6246;50.826;4.712;2024-03-08T10:36:38;9.20;;;7.40;;
12363;SDS011;6246;50.826;4.712;2024-03-08T10:39:06;10.50;;;7.20;;
12363;SDS011;6246;50.826;4.712;2024-03-08T10:41:34;10.50;;;7.33;;
12363;SDS011;6246;50.826;4.712;2024-03-08T10:44:26;10.60;;;7.23;;
12363;SDS011;6246;50.826;4.712;2024-03-08T10:49:16;8.60;;;7.30;;
12363;SDS011;6246;50.826;4.712;2024-03-08T10:51:42;8.87;;;7.10;;
12363;SDS011;6246;50.826;4.712;2024-03-08T10:54:09;10.17;;;7.10;;
12363;SDS011;6246;50.826;4.712;2024-03-08T10:56:36;10.67;;;7.27;;
12363;SDS011;6246;50.826;4.712;2024-03-08T10:59:02;8.57;;;7.13;;
12363;SDS011;6246;50.826;4.712;2024-03-08T11:01:29;10.13;;;6.93;;
12363;SDS011;6246;50.826;4.712;2024-03-08T11:03:56;11.17;;;7.60;;
12363;SDS011;6246;50.826;4.712;2024-03-08T11:09:08;11.50;;;7.90;;
12363;SDS011;6246;50.826;4.712;2024-03-08T11:11:38;8.60;;;7.00;;
12363;SDS011;6246;50.826;4.712;2024-03-08T11:14:08;8.17;;;6.53;;
12363;SDS011;6246;50.826;4.712;2024-03-08T11:16:53;9.07;;;7.03;;
12363;SDS011;6246;50.826;4.712;2024-03-08T11:21:45;8.47;;;6.87;;
12363;SDS011;6246;50.826;4.712;2024-03-08T11:24:12;8.47;;;6.97;;
12363;SDS011;6246;50.826;4.712;2024-03-08T11:26:39;9.07;;;7.17;;
12363;SDS011;6246;50.826;4.712;2024-03-08T11:31:50;8.00;;;6.67;;
12363;SDS011;6246;50.826;4.712;2024-03-08T11:34:16;8.43;;;6.30;;
12363;SDS011;6246;50.826;4.712;2024-03-08T11:36:44;7.83;;;6.60;;
12363;SDS011;6246;50.826;4.712;2024-03-08T11:39:13;9.07;;;6.33;;
12363;SDS011;6246;50.826;4.712;2024-03-08T11:41:40;7.87;;;6.53;;
12363;SDS011;6246;50.826;4.712;2024-03-08T11:44:10;9.10;;;6.57;;
12363;SDS011;6246;50.826;4.712;2024-03-08T11:46:41;8.67;;;6.63;;
12363;SDS011;6246;50.826;4.712;2024-03-08T11:49:11;7.73;;;6.53;;
12363;SDS011;6246;50.826;4.712;2024-03-08T11:51:37;8.63;;;6.47;;
12363;SDS011;6246;50.826;4.712;2024-03-08T11:54:03;7.70;;;5.97;;
12363;SDS011;6246;50.826;4.712;2024-03-08T11:56:31;8.37;;;6.83;;
12363;SDS011;6246;50.826;4.712;2024-03-08T11:58:57;7.47;;;6.30;;
12363;SDS011;6246;50.826;4.712;2024-03-08T12:01:24;8.57;;;7.13;;
12363;SDS011;6246;50.826;4.712;2024-03-08T12:03:54;9.33;;;7.37;;
12363;SDS011;6246;50.826;4.712;2024-03-08T12:06:23;8.17;;;6.83;;
12363;SDS011;6246;50.826;4.712;2024-03-08T12:08:50;8.80;;;6.80;;
12363;SDS011;6246;50.826;4.712;2024-03-08T12:11:19;8.93;;;6.50;;
12363;SDS011;6246;50.826;4.712;2024-03-08T12:13:49;9.23;;;6.30;;
12363;SDS011;6246;50.826;4.712;2024-03-08T12:16:19;7.57;;;6.40;;
12363;SDS011;6246;50.826;4.712;2024-03-08T12:18:46;7.53;;;6.40;;
12363;SDS011;6246;50.826;4.712;2024-03-08T12:21:13;7.23;;;6.53;;
12363;SDS011;6246;50.826;4.712;2024-03-08T12:23:42;9.07;;;7.00;;
12363;SDS011;6246;50.826;4.712;2024-03-08T12:26:11;8.63;;;6.10;;
12363;SDS011;6246;50.826;4.712;2024-03-08T12:28:38;7.13;;;6.27;;
12363;SDS011;6246;50.826;4.712;2024-03-08T12:31:06;9.07;;;6.53;;
12363;SDS011;6246;50.826;4.712;2024-03-08T12:33:36;9.17;;;6.40;;
12363;SDS011;6246;50.826;4.712;2024-03-08T12:36:02;7.90;;;6.07;;
12363;SDS011;6246;50.826;4.712;2024-03-08T12:38:32;7.93;;;6.47;;
12363;SDS011;6246;50.826;4.712;2024-03-08T12:41:00;7.73;;;6.47;;
12363;SDS011;6246;50.826;4.712;2024-03-08T12:43:27;7.80;;;6.60;;
12363;SDS011;6246;50.826;4.712;2024-03-08T12:45:56;7.77;;;6.63;;
12363;SDS011;6246;50.826;4.712;2024-03-08T12:48:22;9.67;;;6.90;;
12363;SDS011;6246;50.826;4.712;2024-03-08T12:50:48;7.77;;;6.10;;
12363;SDS011;6246;50.826;4.712;2024-03-08T12:53:16;8.17;;;6.50;;
12363;SDS011;6246;50.826;4.712;2024-03-08T12:55:42;7.47;;;6.53;;
12363;SDS011;6246;50.826;4.712;2024-03-08T12:58:09;8.13;;;6.37;;
12363;SDS011;6246;50.826;4.712;2024-03-08T13:00:36;7.47;;;6.30;;
12363;SDS011;6246;50.826;4.712;2024-03-08T13:03:02;8.37;;;6.63;;
12363;SDS011;6246;50.826;4.712;2024-03-08T13:05:28;8.60;;;6.00;;
12363;SDS011;6246;50.826;4.712;2024-03-08T13:07:55;7.87;;;6.43;;
12363;SDS011;6246;50.826;4.712;2024-03-08T13:10:22;7.63;;;6.17;;
12363;SDS011;6246;50.826;4.712;2024-03-08T13:12:48;7.33;;;6.13;;
12363;SDS011;6246;50.826;4.712;2024-03-08T13:15:14;7.40;;;6.33;;
12363;SDS011;6246;50.826;4.712;2024-03-08T13:17:48;7.00;;;6.00;;
12363;SDS011;6246;50.826;4.712;2024-03-08T13:20:14;7.57;;;6.23;;
12363;SDS011;6246;50.826;4.712;2024-03-08T13:22:45;6.23;;;5.63;;
12363;SDS011;6246;50.826;4.712;2024-03-08T13:25:14;6.93;;;5.93;;
12363;SDS011;6246;50.826;4.712;2024-03-08T13:27:40;7.97;;;6.37;;
12363;SDS011;6246;50.826;4.712;2024-03-08T13:30:10;7.23;;;6.27;;
12363;SDS011;6246;50.826;4.712;2024-03-08T13:32:43;7.03;;;6.23;;
12363;SDS011;6246;50.826;4.712;2024-03-08T13:35:09;7.70;;;6.37;;
12363;SDS011;6246;50.826;4.712;2024-03-08T13:37:42;7.43;;;6.03;;
12363;SDS011;6246;50.826;4.712;2024-03-08T13:40:08;7.67;;;5.93;;
12363;SDS011;6246;50.826;4.712;2024-03-08T13:42:43;8.73;;;6.20;;
12363;SDS011;6246;50.826;4.712;2024-03-08T13:45:10;7.97;;;6.40;;
12363;SDS011;6246;50.826;4.712;2024-03-08T13:47:36;6.90;;;6.07;;
12363;SDS011;6246;50.826;4.712;2024-03-08T13:50:04;7.07;;;5.90;;
12363;SDS011;6246;50.826;4.712;2024-03-08T13:52:32;6.93;;;5.97;;
12363;SDS011;6246;50.826;4.712;2024-03-08T13:54:59;6.90;;;5.93;;
12363;SDS011;6246;50.826;4.712;2024-03-08T13:57:25;6.53;;;5.60;;
12363;SDS011;6246;50.826;4.712;2024-03-08T13:59:52;7.83;;;6.27;;
12363;SDS011;6246;50.826;4.712;2024-03-08T14:02:18;8.33;;;6.17;;
12363;SDS011;6246;50.826;4.712;2024-03-08T14:04:47;7.83;;;6.27;;
12363;SDS011;6246;50.826;4.712;2024-03-08T14:07:14;9.47;;;6.30;;
12363;SDS011;6246;50.826;4.712;2024-03-08T14:09:41;6.67;;;5.03;;
12363;SDS011;6246;50.826;4.712;2024-03-08T14:12:08;8.43;;;6.43;;
12363;SDS011;6246;50.826;4.712;2024-03-08T14:14:35;6.47;;;5.63;;
12363;SDS011;6246;50.826;4.712;2024-03-08T14:17:01;6.77;;;5.73;;
12363;SDS011;6246;50.826;4.712;2024-03-08T14:19:28;6.30;;;5.43;;
12363;SDS011;6246;50.826;4.712;2024-03-08T14:21:55;6.50;;;5.50;;
12363;SDS011;6246;50.826;4.712;2024-03-08T14:24:24;6.90;;;5.63;;
12363;SDS011;6246;50.826;4.712;2024-03-08T14:26:50;6.07;;;5.40;;
12363;SDS011;6246;50.826;4.712;2024-03-08T14:29:16;8.47;;;6.20;;
12363;SDS011;6246;50.826;4.712;2024-03-08T14:31:45;5.87;;;5.13;;
12363;SDS011;6246;50.826;4.712;2024-03-08T14:34:11;7.27;;;5.20;;
12363;SDS011;6246;50.826;4.712;2024-03-08T14:36:39;5.77;;;5.17;;
12363;SDS011;6246;50.826;4.712;2024-03-08T14:39:05;7.10;;;5.00;;
12363;SDS011;6246;50.826;4.712;2024-03-08T14:41:32;6.50;;;4.87;;
12363;SDS011;6246;50.826;4.712;2024-03-08T14:43:58;11.37;;;5.43;;
12363;SDS011;6246;50.826;4.712;2024-03-08T14:46:24;9.37;;;5.30;;
12363;SDS011;6246;50.826;4.712;2024-03-08T14:48:54;6.63;;;5.23;;
12363;SDS011;6246;50.826;4.712;2024-03-08T14:51:21;7.83;;;5.30;;
12363;SDS011;6246;50.826;4.712;2024-03-08T14:53:51;7.80;;;5.23;;
12363;SDS011;6246;50.826;4.712;2024-03-08T14:56:17;9.73;;;5.27;;
12363;SDS011;6246;50.826;4.712;2024-03-08T14:58:43;9.27;;;5.13;;
12363;SDS011;6246;50.826;4.712;2024-03-08T15:01:10;12.57;;;5.47;;
12363;SDS011;6246;50.826;4.712;2024-03-08T15:03:38;11.27;;;5.87;;
12363;SDS011;6246;50.826;4.712;2024-03-08T15:06:04;12.77;;;5.73;;